createdAt,value
2022-08-22T00:02:09.629Z,101726.41
2022-08-22T00:02:44.176Z,101756.09
2022-08-22T00:02:55.722Z,101741.47
2022-08-22T00:03:10.386Z,101713.75
2022-08-22T00:05:04.035Z,101724.25
2022-08-22T00:08:07.512Z,101727.84
2022-08-22T00:10:56.859Z,101726.19
2022-08-22T00:13:45.844Z,101719.94
2022-08-22T00:16:36.049Z,101723.00
2022-08-22T00:19:43.150Z,101724.91
2022-08-22T00:22:27.859Z,101720.53
2022-08-22T00:25:15.021Z,101727.44
2022-08-22T00:28:14.803Z,101717.06
2022-08-22T00:31:03.226Z,101722.81
2022-08-22T00:33:51.379Z,101731.34
2022-08-22T00:37:00.940Z,101720.97
2022-08-22T00:39:34.068Z,101726.72
2022-08-22T00:42:31.637Z,101731.41
2022-08-22T00:45:13.755Z,101736.88
2022-08-22T00:51:39.688Z,101733.63
2022-08-22T00:54:45.486Z,101735.53
2022-08-22T00:57:54.487Z,101746.81
2022-08-22T01:01:05.792Z,101736.13
2022-08-22T01:03:44.108Z,101732.03
2022-08-22T01:07:05.548Z,101733.44
2022-08-22T01:10:15.781Z,101737.56
2022-08-22T01:13:12.861Z,101739.22
2022-08-22T01:15:42.361Z,101743.34
2022-08-22T01:18:11.847Z,101749.09
2022-08-22T01:21:06.861Z,101743.09
2022-08-22T01:24:04.840Z,101740.66
2022-08-22T01:27:12.963Z,101742.56
2022-08-22T01:30:25.686Z,101738.19
2022-08-22T01:33:17.261Z,101739.28
2022-08-22T01:36:02.729Z,101736.03
2022-08-22T01:39:01.216Z,101739.88
2022-08-22T01:42:06.177Z,101736.03
2022-08-22T01:44:38.551Z,101744.78
2022-08-22T01:47:13.236Z,101741.50
2022-08-22T01:50:02.489Z,101738.78
2022-08-22T01:53:01.890Z,101735.50
2022-08-22T01:55:52.360Z,101732.50
2022-08-22T01:58:26.160Z,101738.25
2022-08-22T02:01:10.984Z,101740.44
2022-08-22T02:03:51.910Z,101736.59
2022-08-22T02:06:32.370Z,101738.25
2022-08-22T02:09:26.279Z,101734.69
2022-08-22T02:12:26.141Z,101733.66
2022-08-22T02:15:00.230Z,101735.28
2022-08-22T02:17:35.676Z,101735.56
2022-08-22T02:20:20.744Z,101730.59
2022-08-22T02:22:57.520Z,101732.53
2022-08-22T02:25:28.838Z,101727.84
2022-08-22T02:28:08.388Z,101720.22
2022-08-22T02:30:56.637Z,101718.59
2022-08-22T02:33:45.670Z,101727.38
2022-08-22T02:36:34.552Z,101713.16
2022-08-22T02:39:37.510Z,101717.84
2022-08-22T02:42:22.844Z,101711.53
2022-08-22T02:45:03.376Z,101722.47
2022-08-22T02:48:17.684Z,101716.47
2022-08-22T02:51:16.487Z,101718.41
2022-08-22T02:53:57.767Z,101719.22
2022-08-22T02:56:34.301Z,101723.59
2022-08-22T02:59:39.308Z,101723.06
2022-08-22T03:02:32.084Z,101717.31
2022-08-22T03:05:02.991Z,101715.16
2022-08-22T03:07:48.487Z,101704.78
2022-08-22T03:10:57.747Z,101712.16
2022-08-22T03:13:39.855Z,101711.06
2022-08-22T03:16:17.628Z,101714.91
2022-08-22T03:18:57.735Z,101711.06
2022-08-22T03:21:57.866Z,101714.38
2022-08-22T03:24:33.705Z,101707.78
2022-08-22T03:27:40.666Z,101706.69
2022-08-22T03:30:17.652Z,101702.56
2022-08-22T03:32:59.233Z,101695.69
2022-08-22T03:35:50.673Z,101702.25
2022-08-22T03:38:32.260Z,101689.97
2022-08-22T03:41:12.912Z,101689.97
2022-08-22T03:44:12.156Z,101679.03
2022-08-22T03:46:41.600Z,101687.50
2022-08-22T03:53:34.707Z,101683.44
2022-08-22T04:00:13.055Z,101696.56
2022-08-22T04:03:07.953Z,101687.50
2022-08-22T04:05:59.139Z,101698.47
2022-08-22T04:08:46.503Z,101697.66
2022-08-22T04:11:41.320Z,101687.50
2022-08-22T04:14:38.480Z,101692.19
2022-08-22T04:17:08.863Z,101696.84
2022-08-22T04:20:11.217Z,101688.34
2022-08-22T04:23:00.779Z,101689.44
2022-08-22T04:25:55.153Z,101692.47
2022-08-22T04:28:52.883Z,101692.25
2022-08-22T04:31:41.528Z,101701.25
2022-08-22T04:34:19.561Z,101701.25
2022-08-22T04:37:10.369Z,101698.50
2022-08-22T04:40:09.977Z,101702.88
2022-08-22T04:42:49.804Z,101712.75
2022-08-22T04:49:29.105Z,101708.38
2022-08-22T04:52:29.618Z,101706.47
2022-08-22T04:55:08.615Z,101706.16
2022-08-22T04:57:53.217Z,101713.56
2022-08-22T05:01:11.913Z,101709.19
2022-08-22T05:03:45.822Z,101706.72
2022-08-22T05:06:34.200Z,101708.38
2022-08-22T05:09:06.796Z,101711.09
2022-08-22T05:11:42.008Z,101719.31
2022-08-22T05:14:36.870Z,101714.66
2022-08-22T05:17:08.560Z,101720.94
2022-08-22T05:19:40.105Z,101713.56
2022-08-22T05:22:14.137Z,101711.63
2022-08-22T05:25:08.634Z,101705.88
2022-08-22T05:27:42.059Z,101711.06
2022-08-22T05:30:15.729Z,101715.72
2022-08-22T05:32:56.391Z,101723.13
2022-08-22T05:35:36.628Z,101727.22
2022-08-22T05:38:07.816Z,101732.97
2022-08-22T05:40:52.423Z,101737.88
2022-08-22T05:43:21.209Z,101737.06
2022-08-22T05:45:49.061Z,101744.97
2022-08-22T05:48:40.337Z,101746.59
2022-08-22T05:51:21.507Z,101748.78
2022-08-22T05:54:05.968Z,101753.66
2022-08-22T05:56:47.386Z,101743.25
2022-08-22T05:59:30.569Z,101736.66
2022-08-22T06:02:31.496Z,101740.50
2022-08-22T06:05:11.831Z,101746.50
2022-08-22T06:07:49.387Z,101746.50
2022-08-22T06:10:19.823Z,101746.22
2022-08-22T06:13:01.107Z,101748.66
2022-08-22T06:15:54.773Z,101755.50
2022-08-22T06:18:43.538Z,101758.47
2022-08-22T06:21:35.433Z,101753.53
2022-08-22T06:24:09.268Z,101758.41
2022-08-22T06:26:40.382Z,101759.47
2022-08-22T06:29:09.441Z,101757.50
2022-08-22T06:31:47.007Z,101768.19
2022-08-22T06:34:34.556Z,101767.09
2022-08-22T06:37:10.541Z,101764.56
2022-08-22T06:39:42.037Z,101759.63
2022-08-22T06:42:22.709Z,101761.25
2022-08-22T06:45:30.811Z,101764.50
2022-08-22T06:48:07.876Z,101777.41
2022-08-22T06:50:48.927Z,101772.47
2022-08-22T06:53:33.112Z,101770.25
2022-08-22T06:56:03.460Z,101767.72
2022-08-22T06:58:34.187Z,101774.56
2022-08-22T07:01:11.759Z,101765.22
2022-08-22T07:04:10.827Z,101770.13
2022-08-22T07:06:45.039Z,101768.97
2022-08-22T07:09:28.125Z,101775.50
2022-08-22T07:12:20.769Z,101773.28
2022-08-22T07:14:54.628Z,101781.44
2022-08-22T07:17:32.812Z,101773.13
2022-08-22T07:20:10.790Z,101776.63
2022-08-22T07:22:38.367Z,101777.38
2022-08-22T07:25:12.794Z,101766.63
2022-08-22T07:28:31.734Z,101768.78
2022-08-22T07:31:38.331Z,101764.34
2022-08-22T07:34:45.624Z,101765.13
2022-08-22T07:37:27.027Z,101764.56
2022-08-22T07:39:58.199Z,101754.03
2022-08-22T07:42:42.559Z,101759.97
2022-08-22T07:45:15.532Z,101761.81
2022-08-22T07:48:05.612Z,101755.75
2022-08-22T07:51:17.614Z,101746.03
2022-08-22T07:54:00.927Z,101753.28
2022-08-22T07:56:38.098Z,101756.97
2022-08-22T07:59:14.510Z,101742.06
2022-08-22T08:05:50.340Z,101723.91
2022-08-22T08:08:50.492Z,101733.38
2022-08-22T08:11:18.964Z,101733.28
2022-08-22T08:13:51.837Z,101727.09
2022-08-22T08:16:23.015Z,101723.94
2022-08-22T08:19:02.839Z,101714.38
2022-08-22T08:21:59.384Z,101706.78
2022-08-22T08:24:31.585Z,101698.44
2022-08-22T08:27:31.832Z,101712.25
2022-08-22T08:30:15.244Z,101705.72
2022-08-22T08:32:46.048Z,101710.81
2022-08-22T08:35:25.551Z,101708.97
2022-08-22T08:38:07.795Z,101705.78
2022-08-22T08:40:34.227Z,101709.13
2022-08-22T08:43:28.055Z,101709.50
2022-08-22T08:46:14.356Z,101703.75
2022-08-22T08:49:18.333Z,101694.25
2022-08-22T08:52:11.982Z,101697.91
2022-08-22T08:55:19.911Z,101705.13
2022-08-22T08:58:10.958Z,101705.06
2022-08-22T09:00:59.323Z,101697.03
2022-08-22T09:04:15.012Z,101704.03
2022-08-22T09:07:04.685Z,101710.03
2022-08-22T09:10:11.102Z,101707.97
2022-08-22T09:13:12.289Z,101706.25
2022-08-22T09:18:54.528Z,101690.75
2022-08-22T09:21:46.546Z,101692.13
2022-08-22T09:24:21.831Z,101694.09
2022-08-22T09:26:57.320Z,101704.69
2022-08-22T09:29:54.680Z,101692.69
2022-08-22T09:32:46.436Z,101690.59
2022-08-22T09:35:23.807Z,101687.06
2022-08-22T09:38:35.290Z,101693.56
2022-08-22T09:41:30.239Z,101687.53
2022-08-22T09:44:27.117Z,101688.06
2022-08-22T09:47:25.859Z,101686.09
2022-08-22T09:50:06.598Z,101682.56
2022-08-22T09:53:01.688Z,101682.72
2022-08-22T09:55:50.126Z,101683.34
2022-08-22T09:58:51.528Z,101672.13
2022-08-22T10:01:17.896Z,101668.56
2022-08-22T10:04:02.899Z,101670.00
2022-08-22T10:06:46.115Z,101660.41
2022-08-22T10:09:31.374Z,101665.59
2022-08-22T10:12:30.561Z,101660.31
2022-08-22T10:15:21.112Z,101663.09
2022-08-22T10:18:17.159Z,101661.78
2022-08-22T10:21:03.520Z,101652.69
2022-08-22T10:23:57.742Z,101656.41
2022-08-22T10:26:38.925Z,101648.59
2022-08-22T10:29:44.148Z,101640.50
2022-08-22T10:32:27.002Z,101643.44
2022-08-22T10:34:59.768Z,101637.25
2022-08-22T10:38:00.024Z,101643.06
2022-08-22T10:40:49.026Z,101636.91
2022-08-22T10:43:28.771Z,101638.34
2022-08-22T10:46:06.812Z,101634.31
2022-08-22T10:48:48.830Z,101626.50
2022-08-22T10:51:44.682Z,101624.53
2022-08-22T10:54:25.928Z,101619.75
2022-08-22T10:57:10.991Z,101631.59
2022-08-22T10:59:44.731Z,101630.63
2022-08-22T11:02:35.924Z,101631.31
2022-08-22T11:05:21.996Z,101624.81
2022-08-22T11:08:00.940Z,101629.81
2022-08-22T11:10:54.887Z,101628.16
2022-08-22T11:13:38.835Z,101624.72
2022-08-22T11:16:36.721Z,101633.28
2022-08-22T11:19:27.595Z,101633.28
2022-08-22T11:22:08.464Z,101630.25
2022-08-22T11:25:04.454Z,101623.59
2022-08-22T11:27:46.340Z,101624.31
2022-08-22T11:30:20.470Z,101616.50
2022-08-22T11:33:00.077Z,101624.06
2022-08-22T11:35:43.600Z,101621.50
2022-08-22T11:38:32.720Z,101615.81
2022-08-22T11:41:09.663Z,101613.50
2022-08-22T11:43:47.692Z,101615.28
2022-08-22T11:46:23.280Z,101606.56
2022-08-22T11:49:25.727Z,101605.97
2022-08-22T11:52:12.233Z,101609.03
2022-08-22T11:55:07.944Z,101603.97
2022-08-22T11:57:55.811Z,101615.69
2022-08-22T12:00:44.413Z,101613.75
2022-08-22T12:03:32.805Z,101604.91
2022-08-22T12:06:36.604Z,101602.25
2022-08-22T12:09:27.196Z,101596.41
2022-08-22T12:12:20.843Z,101598.84
2022-08-22T12:15:15.265Z,101599.53
2022-08-22T12:18:21.372Z,101595.19
2022-08-22T12:20:57.207Z,101590.59
2022-08-22T12:23:50.377Z,101591.53
2022-08-22T12:26:30.883Z,101592.72
2022-08-22T12:29:20.379Z,101591.31
2022-08-22T12:32:34.009Z,101592.31
2022-08-22T12:35:29.879Z,101589.22
2022-08-22T12:38:26.704Z,101588.66
2022-08-22T12:41:27.985Z,101582.94
2022-08-22T12:44:18.975Z,101589.66
2022-08-22T12:46:58.685Z,101583.88
2022-08-22T12:49:52.616Z,101582.56
2022-08-22T12:53:03.003Z,101576.53
2022-08-22T12:55:35.503Z,101579.53
2022-08-22T12:58:18.733Z,101577.28
2022-08-22T13:00:48.446Z,101572.78
2022-08-22T13:03:35.648Z,101562.25
2022-08-22T13:06:37.956Z,101570.75
2022-08-22T13:09:18.580Z,101554.03
2022-08-22T13:11:49.462Z,101565.47
2022-08-22T13:14:25.615Z,101566.59
2022-08-22T13:16:58.372Z,101557.97
2022-08-22T13:19:33.085Z,101560.50
2022-08-22T13:22:16.752Z,101558.91
2022-08-22T13:24:57.135Z,101557.38
2022-08-22T13:27:36.276Z,101558.91
2022-08-22T13:30:27.315Z,101554.16
2022-08-22T13:33:01.867Z,101562.00
2022-08-22T13:35:44.475Z,101556.81
2022-08-22T13:38:25.550Z,101552.41
2022-08-22T13:40:54.427Z,101542.28
2022-08-22T13:43:25.743Z,101550.75
2022-08-22T13:46:03.583Z,101541.94
2022-08-22T13:48:50.245Z,101539.88
2022-08-22T13:51:27.725Z,101537.50
2022-08-22T13:54:20.331Z,101538.53
2022-08-22T13:57:13.160Z,101537.50
2022-08-22T14:00:01.578Z,101540.84
2022-08-22T14:03:05.686Z,101536.94
2022-08-22T14:05:42.940Z,101536.00
2022-08-22T14:08:34.228Z,101534.16
2022-08-22T14:11:24.091Z,101529.91
2022-08-22T14:14:00.697Z,101527.91
2022-08-22T14:16:34.649Z,101529.66
2022-08-22T14:19:06.930Z,101532.31
2022-08-22T14:21:51.683Z,101526.53
2022-08-22T14:24:45.549Z,101525.38
2022-08-22T14:27:27.265Z,101521.31
2022-08-22T14:30:17.046Z,101522.13
2022-08-22T14:32:53.737Z,101517.38
2022-08-22T14:35:41.054Z,101519.13
2022-08-22T14:38:29.776Z,101517.19
2022-08-22T14:41:25.107Z,101517.28
2022-08-22T14:44:29.067Z,101509.44
2022-08-22T14:47:54.722Z,101502.63
2022-08-22T14:49:59.996Z,101503.78
2022-08-22T14:52:37.916Z,101503.41
2022-08-22T14:55:21.419Z,101501.47
2022-08-22T14:58:15.182Z,101499.50
2022-08-22T15:00:49.999Z,101504.56
2022-08-22T15:03:25.528Z,101496.50
2022-08-22T15:05:56.621Z,101499.50
2022-08-22T15:08:32.585Z,101494.66
2022-08-22T15:11:06.937Z,101489.13
2022-08-22T15:13:37.757Z,101493.41
2022-08-22T15:16:17.592Z,101493.03
2022-08-22T15:18:51.896Z,101487.41
2022-08-22T15:21:31.415Z,101477.94
2022-08-22T15:24:09.724Z,101488.19
2022-08-22T15:26:41.151Z,101481.84
2022-08-22T15:29:31.127Z,101481.03
2022-08-22T15:32:01.118Z,101484.84
2022-08-22T15:34:42.184Z,101482.78
2022-08-22T15:37:17.931Z,101479.19
2022-08-22T15:40:13.892Z,101488.66
2022-08-22T15:42:54.032Z,101478.25
2022-08-22T15:45:34.896Z,101475.72
2022-08-22T15:48:07.781Z,101479.53
2022-08-22T15:50:41.837Z,101472.22
2022-08-22T15:53:21.666Z,101480.06
2022-08-22T15:56:20.939Z,101474.53
2022-08-22T15:59:14.653Z,101467.75
2022-08-22T16:01:51.893Z,101469.94
2022-08-22T16:04:36.024Z,101469.47
2022-08-22T16:07:19.201Z,101460.72
2022-08-22T16:09:50.599Z,101463.00
2022-08-22T16:12:42.963Z,101460.94
2022-08-22T16:15:46.982Z,101456.41
2022-08-22T16:18:36.892Z,101455.50
2022-08-22T16:21:10.788Z,101454.69
2022-08-22T16:23:46.237Z,101452.94
2022-08-22T16:26:16.503Z,101451.22
2022-08-22T16:28:59.188Z,101448.66
2022-08-22T16:31:56.268Z,101443.47
2022-08-22T16:34:37.955Z,101452.34
2022-08-22T16:37:18.081Z,101445.88
2022-08-22T16:39:48.370Z,101442.66
2022-08-22T16:42:22.400Z,101429.97
2022-08-22T16:45:02.455Z,101441.72
2022-08-22T16:47:36.243Z,101438.84
2022-08-22T16:50:07.540Z,101434.28
2022-08-22T16:52:36.888Z,101434.97
2022-08-22T16:55:28.519Z,101429.19
2022-08-22T16:58:10.373Z,101431.84
2022-08-22T17:00:36.968Z,101430.53
2022-08-22T17:03:21.223Z,101432.84
2022-08-22T17:06:06.087Z,101431.91
2022-08-22T17:08:52.337Z,101433.25
2022-08-22T17:11:45.788Z,101426.78
2022-08-22T17:14:33.718Z,101427.94
2022-08-22T17:17:31.396Z,101423.75
2022-08-22T17:20:43.067Z,101428.38
2022-08-22T17:23:31.032Z,101428.84
2022-08-22T17:26:34.775Z,101428.38
2022-08-22T17:29:13.292Z,101433.44
2022-08-22T17:31:47.897Z,101427.56
2022-08-22T17:34:29.227Z,101428.63
2022-08-22T17:37:24.057Z,101428.41
2022-08-22T17:39:56.039Z,101433.25
2022-08-22T17:42:40.727Z,101429.34
2022-08-22T17:45:23.470Z,101441.22
2022-08-22T17:48:15.693Z,101439.63
2022-08-22T17:50:42.050Z,101443.19
2022-08-22T17:53:23.094Z,101438.78
2022-08-22T17:56:03.791Z,101433.94
2022-08-22T17:58:43.814Z,101441.31
2022-08-22T18:01:53.706Z,101441.53
2022-08-22T18:04:28.192Z,101448.41
2022-08-22T18:07:15.822Z,101443.88
2022-08-22T18:10:04.507Z,101441.69
2022-08-22T18:12:42.744Z,101439.91
2022-08-22T18:15:47.655Z,101447.63
2022-08-22T18:18:31.233Z,101450.56
2022-08-22T18:21:07.104Z,101456.75
2022-08-22T18:23:41.475Z,101451.13
2022-08-22T18:26:42.028Z,101456.56
2022-08-22T18:29:49.456Z,101448.19
2022-08-22T18:32:54.490Z,101455.03
2022-08-22T18:35:34.700Z,101454.75
2022-08-22T18:38:19.807Z,101459.19
2022-08-22T18:40:54.024Z,101460.34
2022-08-22T18:43:41.613Z,101462.38
2022-08-22T18:46:26.722Z,101469.84
2022-08-22T18:49:14.042Z,101467.91
2022-08-22T18:52:17.719Z,101468.25
2022-08-22T18:55:21.791Z,101470.22
2022-08-22T18:58:17.865Z,101477.06
2022-08-22T19:01:02.718Z,101477.56
2022-08-22T19:03:54.191Z,101481.94
2022-08-22T19:06:58.976Z,101493.13
2022-08-22T19:09:54.605Z,101494.44
2022-08-22T19:12:53.480Z,101493.63
2022-08-22T19:15:35.610Z,101502.69
2022-08-22T19:18:19.513Z,101500.22
2022-08-22T19:25:27.780Z,101516.25
2022-08-22T19:28:06.563Z,101513.81
2022-08-22T19:31:16.116Z,101514.59
2022-08-22T19:33:48.597Z,101526.06
2022-08-22T19:36:36.101Z,101519.41
2022-08-22T19:39:57.284Z,101516.78
2022-08-22T19:42:27.150Z,101510.63
2022-08-22T19:45:19.176Z,101516.78
2022-08-22T19:48:17.210Z,101520.47
2022-08-22T19:50:44.821Z,101517.84
2022-08-22T19:54:04.043Z,101518.44
2022-08-22T19:57:11.539Z,101518.44
2022-08-22T19:59:53.048Z,101512.44
2022-08-22T20:02:43.441Z,101508.22
2022-08-22T20:09:20.464Z,101514.97
2022-08-22T20:12:34.894Z,101512.22
2022-08-22T20:15:19.112Z,101515.59
2022-08-22T20:18:47.326Z,101513.97
2022-08-22T20:20:59.648Z,101515.59
2022-08-22T20:23:33.386Z,101511.22
2022-08-22T20:26:00.548Z,101513.81
2022-08-22T20:28:48.762Z,101511.19
2022-08-22T20:31:23.082Z,101506.66
2022-08-22T20:34:13.324Z,101506.44
2022-08-22T20:36:44.508Z,101505.16
2022-08-22T20:39:21.023Z,101502.69
2022-08-22T20:41:56.235Z,101507.22
2022-08-22T20:44:30.824Z,101493.78
2022-08-22T20:47:19.396Z,101497.47
2022-08-22T20:50:01.878Z,101496.66
2022-08-22T20:52:35.964Z,101495.84
2022-08-22T20:55:32.867Z,101493.41
2022-08-22T20:58:05.543Z,101497.91
2022-08-22T21:00:52.686Z,101491.09
2022-08-22T21:03:25.359Z,101491.41
2022-08-22T21:06:13.248Z,101493.16
2022-08-22T21:08:40.844Z,101491.53
2022-08-22T21:11:26.986Z,101491.03
2022-08-22T21:13:54.776Z,101496.53
2022-08-22T21:16:31.404Z,101489.22
2022-08-22T21:19:29.175Z,101495.03
2022-08-22T21:22:16.693Z,101496.16
2022-08-22T21:24:54.501Z,101490.66
2022-08-22T21:27:32.147Z,101488.88
2022-08-22T21:30:04.784Z,101491.91
2022-08-22T21:32:55.171Z,101492.53
2022-08-22T21:35:27.081Z,101486.84
2022-08-22T21:38:17.452Z,101481.34
2022-08-22T21:41:01.896Z,101482.78
2022-08-22T21:43:37.752Z,101486.13
2022-08-22T21:46:07.376Z,101490.09
2022-08-22T21:48:46.261Z,101481.34
2022-08-22T21:51:33.408Z,101474.84
2022-08-22T21:54:32.596Z,101479.22
2022-08-22T21:57:14.940Z,101479.06
2022-08-22T21:59:59.500Z,101480.97
2022-08-22T22:03:03.467Z,101480.19
2022-08-22T22:05:33.840Z,101484.66
2022-08-22T22:08:00.487Z,101484.97
2022-08-22T22:10:27.115Z,101491.56
2022-08-22T22:13:00.897Z,101483.34
2022-08-22T22:15:34.527Z,101481.19
2022-08-22T22:18:26.236Z,101476.81
2022-08-22T22:20:57.200Z,101480.19
2022-08-22T22:23:28.470Z,101472.28
2022-08-22T22:25:57.036Z,101475.94
2022-08-22T22:28:36.621Z,101482.56
2022-08-22T22:31:03.559Z,101484.31
2022-08-22T22:33:52.849Z,101482.69
2022-08-22T22:36:26.744Z,101480.22
2022-08-22T22:39:06.635Z,101484.94
2022-08-22T22:41:43.165Z,101481.69
2022-08-22T22:44:09.532Z,101479.03
2022-08-22T22:47:02.052Z,101481.28
2022-08-22T22:49:29.990Z,101491.25
2022-08-22T22:52:01.008Z,101488.00
2022-08-22T22:55:07.589Z,101489.13
2022-08-22T22:57:43.344Z,101486.16
2022-08-22T23:00:13.508Z,101490.84
2022-08-22T23:02:49.239Z,101491.34
2022-08-22T23:05:48.645Z,101487.50
2022-08-22T23:08:15.036Z,101494.91
2022-08-22T23:10:41.437Z,101491.34
2022-08-22T23:13:13.095Z,101481.16
2022-08-22T23:15:58.766Z,101495.41
2022-08-22T23:18:32.362Z,101480.88
2022-08-22T23:21:27.170Z,101487.50
2022-08-22T23:23:55.911Z,101490.75
2022-08-22T23:26:22.375Z,101488.00
2022-08-22T23:28:49.017Z,101488.00
2022-08-22T23:31:31.235Z,101484.75
2022-08-22T23:34:08.708Z,101490.25
2022-08-22T23:37:03.072Z,101483.13
2022-08-22T23:39:57.530Z,101488.63
2022-08-22T23:42:24.075Z,101484.25
2022-08-22T23:44:56.465Z,101484.25
2022-08-22T23:47:22.976Z,101481.00
2022-08-22T23:49:49.408Z,101481.59
2022-08-22T23:52:22.009Z,101466.25
2022-08-22T23:54:55.727Z,101465.53
2022-08-22T23:57:49.367Z,101468.09
